Buford, Georgia
Current Conditions -  °F | °C
As of 6:53 PM on Sunday 23 Nov 2014 (Local Time) from KGVL Reporting Station
Light Rain Light Rain  
Wind Chill: 44°   Ceiling: 300
Heat Index: 49°   Visibility: 10mi
Dew Point: 48°   Wind: 14mph
Humidity: 97%   Direction: 100°E
Pressure: 29.71"   Gusts: NA
Location:  34.12°N, 84.01°W
Report Text: KGVL 232353Z AUTO 10012KT 10SM -RA OVC003 09/09 A2971 RMK AO2 RAE32B43 SLP060 P0007 60126 T00940089 10100 20083 58017
Loading
Personal Weather Stations






























Interactive Weather Map New forecast layout! Learn more

10-Day Weather Forecast

Advertisements
Track Severe Weather on mobile